Time;durP1;ratioP1;P1;durP2;ratioP2;P2;SDS_P1;SDS_P2;PMS_P1;PMS_P2;Temp;Humidity;BMP_temperature;BMP_pressure;BME280_temperature;BME280_humidity;BME280_pressure;Samples;Min_cycle;Max_cycle;Signal;HPM_P1;HPM_P2
2022/03/26 00:02:20;;;;;;;;;55.00;46.25;;;;;13.30;39.05;102054.56;5062881;28;46021;-89
2022/03/26 00:04:46;;;;;;;;;60.25;48.00;;;;;13.28;39.36;102058.94;5060785;28;45449;-89
2022/03/26 00:07:11;;;;;;;;;58.50;44.50;;;;;13.24;39.42;102054.47;5060371;28;45830;-86
2022/03/26 00:09:38;;;;;;;;;65.25;47.00;;;;;13.26;39.07;102059.78;5060487;28;45290;-86
2022/03/26 00:12:04;;;;;;;;;59.50;47.25;;;;;13.04;39.41;102026.75;5056694;28;45970;-85
2022/03/26 00:14:29;;;;;;;;;58.75;45.25;;;;;13.23;39.36;102054.47;5061200;28;45254;-82
2022/03/26 00:16:55;;;;;;;;;60.00;48.75;;;;;13.16;39.45;102052.53;5059921;28;45485;-79
2022/03/26 00:19:20;;;;;;;;;61.75;47.25;;;;;13.17;40.20;102054.31;5058871;28;45427;-84
2022/03/26 00:21:48;;;;;;;;;59.00;46.75;;;;;13.05;39.27;102033.81;5058685;28;46138;-81
2022/03/26 00:24:14;;;;;;;;;61.50;48.25;;;;;13.09;40.30;102059.44;5061112;28;45358;-89
2022/03/26 00:26:40;;;;;;;;;61.25;46.50;;;;;13.09;40.45;102056.81;5061958;28;45342;-85
2022/03/26 00:29:08;;;;;;;;;58.75;47.50;;;;;13.05;40.47;102050.59;5060468;28;45439;-82
2022/03/26 00:31:34;;;;;;;;;59.50;44.75;;;;;12.92;40.07;102034.44;5065150;28;45907;-79
2022/03/26 00:34:00;;;;;;;;;56.00;44.00;;;;;12.99;40.01;102057.50;5065860;28;45197;-76
2022/03/26 00:36:25;;;;;;;;;61.75;47.50;;;;;12.96;40.84;102052.16;5058397;28;45485;-80
2022/03/26 00:38:51;;;;;;;;;63.00;48.50;;;;;12.82;40.67;102031.63;5057619;28;45570;-81
2022/03/26 00:41:16;;;;;;;;;52.00;42.25;;;;;12.87;40.55;102050.25;5060482;28;46109;-77
2022/03/26 00:43:42;;;;;;;;;61.00;49.50;;;;;12.77;41.27;102040.34;5059477;28;45447;-82
2022/03/26 00:46:07;;;;;;;;;61.00;49.25;;;;;12.77;41.14;102054.47;5059908;28;45495;-83
2022/03/26 00:48:33;;;;;;;;;61.25;48.50;;;;;12.73;41.15;102047.31;5061709;28;45464;-85
2022/03/26 00:50:58;;;;;;;;;57.00;48.00;;;;;12.64;41.38;102044.50;5059718;28;45660;-82
2022/03/26 00:53:24;;;;;;;;;61.25;47.00;;;;;12.66;41.93;102044.53;5060777;28;45457;-80
2022/03/26 00:55:49;;;;;;;;;58.00;45.25;;;;;12.64;41.64;102046.25;5059677;28;45599;-83
2022/03/26 00:58:14;;;;;;;;;59.75;47.00;;;;;12.60;41.06;102042.66;5060522;28;45404;-77
2022/03/26 01:00:42;;;;;;;;;55.25;46.00;;;;;12.53;42.01;102035.47;5058807;28;46161;-74
2022/03/26 01:03:09;;;;;;;;;58.75;48.00;;;;;12.51;42.03;102037.19;5064341;28;45437;-73
2022/03/26 01:05:35;;;;;;;;;53.50;45.25;;;;;12.51;41.28;102034.53;5063012;28;45233;-76
2022/03/26 01:08:01;;;;;;;;;54.25;45.00;;;;;12.53;42.26;102046.03;5059908;28;45417;-78
2022/03/26 01:10:28;;;;;;;;;62.50;47.00;;;;;12.20;41.69;101994.28;5059737;28;47070;-76
2022/03/26 01:12:53;;;;;;;;;65.00;49.25;;;;;12.47;41.77;102037.97;5058035;28;45298;-77
2022/03/26 01:15:19;;;;;;;;;62.00;48.00;;;;;12.41;41.57;102038.75;5059064;28;45425;-78
2022/03/26 01:17:45;;;;;;;;;52.50;44.75;;;;;12.33;42.35;102019.19;5057521;28;45487;-75
2022/03/26 01:20:11;;;;;;;;;60.75;48.75;;;;;12.37;42.63;102030.72;5056994;28;46478;-78
2022/03/26 01:22:37;;;;;;;;;58.00;46.75;;;;;12.34;42.78;102030.66;5055568;28;45531;-79
2022/03/26 01:25:03;;;;;;;;;65.00;49.00;;;;;12.34;42.11;102035.94;5050811;28;45340;-78
2022/03/26 01:27:30;;;;;;;;;56.50;44.00;;;;;12.33;41.82;102040.34;5058121;28;45377;-83
2022/03/26 01:29:56;;;;;;;;;55.00;44.25;;;;;12.29;42.73;102034.97;5056930;28;45262;-88
2022/03/26 01:32:21;;;;;;;;;62.75;46.50;;;;;12.05;42.45;101998.34;5056586;28;45622;-78
2022/03/26 01:34:46;;;;;;;;;53.25;42.75;;;;;12.23;42.86;102036.59;5056462;28;45330;-80
2022/03/26 01:37:12;;;;;;;;;59.25;47.00;;;;;12.16;42.63;102016.19;5057449;28;45440;-74
2022/03/26 01:39:38;;;;;;;;;59.75;48.75;;;;;12.18;42.98;102035.59;5056542;28;47340;-79
2022/03/26 01:42:05;;;;;;;;;58.50;48.75;;;;;12.15;42.66;102032.91;5057028;28;45420;-77
2022/03/26 01:44:32;;;;;;;;;60.00;44.50;;;;;12.03;42.78;102022.09;5059641;28;45426;-78
2022/03/26 01:47:00;;;;;;;;;57.50;47.75;;;;;12.06;43.10;102024.78;5056827;28;45516;-77
2022/03/26 01:49:25;;;;;;;;;58.00;47.75;;;;;12.01;42.90;102013.25;5057073;28;46162;-76
2022/03/26 01:51:51;;;;;;;;;55.75;44.75;;;;;12.05;43.35;102023.00;5054985;28;45483;-78
2022/03/26 01:54:18;;;;;;;;;57.75;44.75;;;;;11.99;43.40;102020.22;5056697;28;45340;-76
2022/03/26 01:56:46;;;;;;;;;59.75;47.75;;;;;11.99;42.67;102020.22;5056996;28;45490;-78
2022/03/26 01:59:11;;;;;;;;;53.75;45.25;;;;;11.89;43.87;102005.03;5056970;28;46186;-80
2022/03/26 02:01:37;;;;;;;;;64.50;46.50;;;;;11.83;43.00;101997.00;5055234;28;45310;-76
2022/03/26 02:04:04;;;;;;;;;61.50;46.50;;;;;11.82;43.26;102001.38;5056999;28;45407;-76
2022/03/26 02:06:34;;;;;;;;;63.25;49.75;;;;;11.87;43.58;102020.84;5056853;28;45297;-75
2022/03/26 02:09:08;;;;;;;;;57.75;46.25;;;;;11.84;44.18;102010.22;5056113;28;46739;-75
2022/03/26 02:11:37;;;;;;;;;63.50;50.75;;;;;11.80;44.42;102010.09;5055956;28;45254;-76
2022/03/26 02:14:04;;;;;;;;;63.50;48.00;;;;;11.80;44.06;102013.63;5054113;28;45414;-77
2022/03/26 02:16:32;;;;;;;;;62.00;50.00;;;;;11.67;44.01;102001.88;5058080;28;45235;-81
2022/03/26 02:18:58;;;;;;;;;63.25;47.25;;;;;11.75;43.38;102011.72;5069820;28;45429;-79
2022/03/26 02:21:24;;;;;;;;;62.50;48.00;;;;;11.71;44.56;102009.00;5063366;28;45200;-81
2022/03/26 02:23:50;;;;;;;;;53.00;42.75;;;;;11.62;44.61;101994.69;5060671;28;45491;-82
2022/03/26 02:26:18;;;;;;;;;60.50;50.00;;;;;11.57;43.91;101984.06;5060373;28;45452;-83
2022/03/26 02:28:45;;;;;;;;;58.50;46.25;;;;;11.53;43.90;101998.00;5061281;28;47584;-81
2022/03/26 02:31:13;;;;;;;;;56.00;45.75;;;;;11.63;44.68;102013.22;5059974;28;45267;-84
2022/03/26 02:33:39;;;;;;;;;58.00;47.25;;;;;11.60;44.52;102013.16;5058673;28;45169;-87
2022/03/26 02:36:05;;;;;;;;;57.75;47.25;;;;;11.51;44.46;101991.81;5062349;28;45323;-84
2022/03/26 02:38:31;;;;;;;;;61.00;50.25;;;;;11.57;43.84;102007.81;5061056;28;46093;-85
2022/03/26 02:40:56;;;;;;;;;64.00;49.75;;;;;11.55;44.83;102003.34;5060955;28;45228;-88
2022/03/26 02:43:22;;;;;;;;;58.50;46.50;;;;;11.47;44.53;101994.34;5063594;28;45416;-85
2022/03/26 02:45:48;;;;;;;;;66.50;50.75;;;;;11.43;44.37;101991.63;5059821;28;45413;-84
2022/03/26 02:48:14;;;;;;;;;65.00;50.75;;;;;11.42;44.79;101992.47;5060602;28;48035;-86
2022/03/26 02:50:43;;;;;;;;;62.00;49.25;;;;;11.47;45.17;102007.56;5060625;28;45365;-88
2022/03/26 02:53:09;;;;;;;;;60.00;47.00;;;;;11.43;44.87;101999.53;5064738;28;45573;-79
2022/03/26 02:55:35;;;;;;;;;63.75;51.00;;;;;11.23;45.24;101971.78;5074418;28;45890;-84
2022/03/26 02:58:01;;;;;;;;;60.25;48.75;;;;;11.35;45.21;102000.22;5061878;28;45696;-87
2022/03/26 03:00:27;;;;;;;;;64.00;47.50;;;;;11.26;45.51;101990.34;5057672;28;45544;-88
2022/03/26 03:02:52;;;;;;;;;63.00;48.50;;;;;11.33;44.89;101999.28;5059757;28;45472;-87
2022/03/26 03:05:18;;;;;;;;;64.75;49.25;;;;;11.32;45.01;101997.50;5059632;28;45323;-84
2022/03/26 03:07:44;;;;;;;;;61.25;50.50;;;;;11.10;44.84;101965.34;5059630;28;46917;-89
2022/03/26 03:10:11;;;;;;;;;64.75;49.75;;;;;11.28;45.15;101995.66;5063778;28;45293;-77
2022/03/26 03:12:36;;;;;;;;;57.50;45.25;;;;;11.14;45.57;101980.38;5064599;28;45306;-84
2022/03/26 03:15:03;;;;;;;;;62.00;48.75;;;;;11.06;45.73;101967.84;5063167;28;45554;-84
2022/03/26 03:17:29;;;;;;;;;68.50;50.50;;;;;11.21;45.33;101999.88;5058707;28;46149;-77
2022/03/26 03:19:54;;;;;;;;;62.50;48.50;;;;;11.19;45.05;101993.69;5060835;28;45491;-80
2022/03/26 03:22:19;;;;;;;;;64.25;49.75;;;;;11.16;45.59;101996.22;5060546;28;45432;-81
2022/03/26 03:24:45;;;;;;;;;65.75;50.75;;;;;11.01;45.80;101966.84;5059779;28;45468;-78
2022/03/26 03:27:11;;;;;;;;;62.25;50.50;;;;;11.17;46.10;101999.75;5058974;28;45374;-83
2022/03/26 03:29:37;;;;;;;;;60.25;50.00;;;;;10.97;45.45;101970.25;5067265;28;45447;-80
2022/03/26 03:32:02;;;;;;;;;62.00;50.25;;;;;11.14;45.89;101997.94;5070354;28;45623;-83
2022/03/26 03:34:28;;;;;;;;;60.50;49.00;;;;;11.09;45.51;101989.94;5058541;28;45381;-84
2022/03/26 03:36:53;;;;;;;;;65.75;51.00;;;;;11.08;45.64;101998.69;5057367;28;46288;-88
2022/03/26 03:39:19;;;;;;;;;65.00;50.75;;;;;11.01;46.45;101980.03;5059483;28;45294;-88
2022/03/26 03:41:44;;;;;;;;;64.50;51.00;;;;;10.93;46.31;101979.84;5058681;28;45231;-86
2022/03/26 03:44:10;;;;;;;;;67.50;49.50;;;;;10.97;46.17;101992.22;5058428;28;45389;-86
2022/03/26 03:46:36;;;;;;;;;65.00;52.25;;;;;11.01;45.71;102002.03;5057043;28;46235;-88
2022/03/26 03:49:03;;;;;;;;;61.25;48.50;;;;;10.98;46.02;101996.69;5056634;28;45462;-86
2022/03/26 03:51:29;;;;;;;;;59.00;48.50;;;;;10.95;45.87;101993.94;5058055;28;45394;-85
2022/03/26 03:53:55;;;;;;;;;64.75;51.50;;;;;10.91;46.44;101997.38;5059869;28;45314;-81
2022/03/26 03:56:20;;;;;;;;;64.25;50.50;;;;;10.77;45.79;101969.72;5058060;28;45325;-81
2022/03/26 03:58:46;;;;;;;;;63.50;50.50;;;;;10.92;46.44;102007.06;5056028;28;45484;-87
2022/03/26 04:01:13;;;;;;;;;60.00;48.25;;;;;10.88;46.01;102013.06;5059154;28;45758;-81
2022/03/26 04:03:39;;;;;;;;;58.50;46.25;;;;;10.86;46.72;102006.88;5058677;28;46020;-87
2022/03/26 04:06:05;;;;;;;;;62.50;49.75;;;;;10.76;46.71;101994.31;5073015;28;44996;-79
2022/03/26 04:08:31;;;;;;;;;64.25;51.25;;;;;10.84;46.75;102012.13;5055652;28;45525;-81
2022/03/26 04:10:56;;;;;;;;;62.75;50.50;;;;;10.79;46.29;102005.81;5057917;28;45435;-87
2022/03/26 04:13:22;;;;;;;;;59.25;49.25;;;;;10.81;46.80;102011.16;5060307;28;45223;-86
2022/03/26 04:15:47;;;;;;;;;64.50;51.25;;;;;10.79;46.40;102012.84;5059623;28;46170;-85
2022/03/26 04:18:13;;;;;;;;;65.00;48.50;;;;;10.77;46.75;102011.91;5059391;28;45224;-87
2022/03/26 04:20:40;;;;;;;;;62.50;50.75;;;;;10.75;46.57;102018.88;5057342;28;45812;-87
2022/03/26 04:23:05;;;;;;;;;56.25;47.75;;;;;10.38;46.50;101957.28;5060090;28;45292;-85
2022/03/26 04:25:32;;;;;;;;;56.75;46.25;;;;;10.69;47.07;102016.97;5058289;28;46125;-85
2022/03/26 04:27:57;;;;;;;;;55.25;44.50;;;;;10.66;46.34;102016.88;5057982;28;45423;-85
2022/03/26 04:30:23;;;;;;;;;67.50;51.00;;;;;10.57;47.12;102003.47;5060217;28;45450;-81
2022/03/26 04:32:48;;;;;;;;;64.25;50.75;;;;;10.63;46.58;102018.56;5061723;28;45421;-79
2022/03/26 04:35:14;;;;;;;;;62.67;49.67;;;;;10.60;46.65;102016.72;5062375;28;46730;-90
2022/03/26 04:37:39;;;;;;;;;61.50;47.75;;;;;10.51;46.68;102008.53;5059200;28;45307;-89
2022/03/26 04:40:06;;;;;;;;;64.00;51.75;;;;;10.36;47.00;101984.44;5065162;28;45992;-77
2022/03/26 04:42:31;;;;;;;;;65.50;50.50;;;;;10.49;47.12;102013.78;5075994;28;45223;-87
2022/03/26 04:44:57;;;;;;;;;61.50;49.25;;;;;10.36;46.76;101998.50;5059321;28;45451;-83
2022/03/26 04:47:22;;;;;;;;;55.00;44.50;;;;;10.49;47.38;102018.16;5057151;28;45576;-80
2022/03/26 04:49:48;;;;;;;;;64.25;50.50;;;;;10.43;47.11;102011.00;5057140;28;45437;-84
2022/03/26 04:52:14;;;;;;;;;66.50;51.25;;;;;10.42;47.78;102013.56;5058249;28;45555;-79
2022/03/26 04:54:39;;;;;;;;;59.75;45.50;;;;;10.40;47.12;102012.63;5058429;28;46961;-81
2022/03/26 04:57:05;;;;;;;;;61.75;50.25;;;;;10.39;47.17;102016.13;5059306;28;45436;-83
2022/03/26 04:59:31;;;;;;;;;62.50;49.00;;;;;10.37;47.60;102015.19;5058765;28;46451;-83
2022/03/26 05:01:57;;;;;;;;;61.50;49.75;;;;;10.30;47.86;102019.38;5057174;28;45361;-80
2022/03/26 05:04:22;;;;;;;;;59.75;49.50;;;;;10.23;47.53;102023.56;5057654;28;45551;-81
2022/03/26 05:06:48;;;;;;;;;63.75;52.00;;;;;10.14;47.72;102007.47;5057108;28;45401;-82
2022/03/26 05:09:14;;;;;;;;;60.25;46.50;;;;;10.20;47.52;102028.72;5058395;28;45500;-79
2022/03/26 05:11:40;;;;;;;;;68.00;52.00;;;;;10.12;47.82;102009.16;5058201;28;45483;-80
2022/03/26 05:14:06;;;;;;;;;60.75;49.75;;;;;10.02;47.86;101996.56;5058201;28;45339;-80
2022/03/26 05:16:31;;;;;;;;;65.50;51.50;;;;;10.15;48.49;102022.44;5064035;28;45204;-77
2022/03/26 05:18:57;;;;;;;;;63.00;50.50;;;;;10.02;48.00;102000.94;5069490;28;45236;-79
2022/03/26 05:21:22;;;;;;;;;59.50;48.25;;;;;10.13;47.71;102025.84;5071667;28;45390;-78
2022/03/26 05:23:47;;;;;;;;;65.33;49.00;;;;;10.07;48.08;102029.22;5073102;28;46409;-82
2022/03/26 05:26:13;;;;;;;;;63.50;53.25;;;;;10.03;48.41;102026.41;5074875;28;44681;-77
2022/03/26 05:28:38;;;;;;;;;66.33;51.33;;;;;9.98;48.40;102029.81;5070021;28;45562;-79
2022/03/26 05:31:05;;;;;;;;;58.00;46.50;;;;;9.95;48.74;102032.34;5067152;28;45329;-78
2022/03/26 05:33:31;;;;;;;;;65.00;52.67;;;;;9.95;48.79;102039.34;5064781;28;46332;-80
2022/03/26 05:35:56;;;;;;;;;64.00;52.00;;;;;9.94;48.72;102050.72;5067064;28;45274;-81
2022/03/26 05:38:22;;;;;;;;;66.33;51.33;;;;;9.80;48.54;102031.00;5069093;28;45810;-80
2022/03/26 05:40:49;;;;;;;;;62.67;48.33;;;;;9.93;49.40;102051.56;5065031;28;45273;-80
2022/03/26 05:43:15;;;;;;;;;66.00;53.00;;;;;9.75;48.90;102022.06;5057412;28;46547;-86
2022/03/26 05:45:40;;;;;;;;;64.00;50.67;;;;;9.92;48.89;102052.41;5057397;28;45493;-85
2022/03/26 05:48:07;;;;;;;;;65.33;48.67;;;;;9.93;48.82;102055.09;5059609;28;45419;-86
2022/03/26 05:50:34;;;;;;;;;66.67;52.33;;;;;9.91;49.07;102056.78;5059928;28;45564;-80
2022/03/26 05:53:00;;;;;;;;;62.67;50.00;;;;;9.88;48.71;102047.94;5074859;28;45417;-76
2022/03/26 05:55:25;;;;;;;;;67.33;52.33;;;;;9.89;48.95;102037.44;5064518;28;45885;-87
2022/03/26 05:57:51;;;;;;;;;64.67;51.33;;;;;9.85;48.65;102029.38;5057187;28;45354;-88
2022/03/26 06:00:16;;;;;;;;;63.67;50.00;;;;;9.99;48.92;102041.25;5056249;28;45501;-87
2022/03/26 06:02:42;;;;;;;;;67.67;52.33;;;;;9.99;48.31;102044.78;5056835;28;47101;-88
2022/03/26 06:05:08;;;;;;;;;67.67;51.67;;;;;9.97;49.08;102035.94;5056054;28;45460;-85
2022/03/26 06:07:33;;;;;;;;;68.33;53.33;;;;;10.05;48.74;102054.59;5056999;28;45377;-85
2022/03/26 06:09:58;;;;;;;;;55.00;42.33;;;;;10.02;48.47;102037.81;5056596;28;45448;-80
2022/03/26 06:12:24;;;;;;;;;68.00;54.00;;;;;10.04;48.49;102039.63;5057040;28;46181;-80
2022/03/26 06:14:49;;;;;;;;;62.67;51.00;;;;;10.08;48.29;102059.97;5055768;28;45493;-79
2022/03/26 06:17:16;;;;;;;;;65.67;50.33;;;;;10.15;48.29;102072.47;5057296;28;45517;-86
2022/03/26 06:19:43;;;;;;;;;65.33;51.33;;;;;10.14;48.29;102072.41;5056104;28;45244;-84
2022/03/26 06:22:08;;;;;;;;;58.00;48.67;;;;;10.09;48.30;102081.91;5057285;28;45312;-88
2022/03/26 06:24:34;;;;;;;;;66.00;52.00;;;;;10.03;48.57;102060.66;5056056;28;45396;-85
2022/03/26 06:27:01;;;;;;;;;70.00;56.00;;;;;10.00;48.46;102050.94;5060296;28;45304;-78
2022/03/26 06:29:26;;;;;;;;;68.67;53.67;;;;;10.01;48.25;102060.59;5071772;28;45267;-83
2022/03/26 06:31:52;;;;;;;;;65.00;50.00;;;;;10.20;48.91;102081.38;5058264;28;47004;-87
2022/03/26 06:34:18;;;;;;;;;61.67;47.00;;;;;10.24;48.76;102082.44;5057442;28;45251;-86
2022/03/26 06:36:43;;;;;;;;;64.33;48.33;;;;;10.27;48.23;102093.03;5055786;28;45524;-85
2022/03/26 06:39:09;;;;;;;;;66.67;50.67;;;;;10.31;48.08;102091.38;5055881;28;45323;-88
2022/03/26 06:41:38;;;;;;;;;58.00;46.67;;;;;10.23;48.22;102070.06;5056404;28;47011;-87
2022/03/26 06:44:10;;;;;;;;;67.67;51.67;;;;;10.26;48.26;102078.09;5050559;28;45445;-87
2022/03/26 06:46:37;;;;;;;;;64.67;53.00;;;;;10.38;47.87;102088.09;5059108;28;45262;-82
2022/03/26 06:49:03;;;;;;;;;67.00;49.00;;;;;10.44;47.92;102101.47;5061369;28;45415;-83
2022/03/26 06:51:29;;;;;;;;;70.67;53.00;;;;;10.44;48.11;102088.28;5064292;28;46437;-84
2022/03/26 06:53:54;;;;;;;;;70.67;53.00;;;;;10.43;47.24;102087.38;5063190;28;45365;-88
2022/03/26 06:56:20;;;;;;;;;67.00;54.00;;;;;10.51;47.39;102080.56;5064975;28;45444;-88
2022/03/26 06:58:45;;;;;;;;;67.00;52.67;;;;;10.66;47.24;102106.50;5068500;28;44714;-87
2022/03/26 07:01:11;;;;;;;;;65.00;51.33;;;;;10.68;47.16;102107.41;5068448;28;46090;-89
2022/03/26 07:03:36;;;;;;;;;63.50;50.75;;;;;10.70;47.30;102112.72;5075777;27;45868;-80
2022/03/26 07:06:03;;;;;;;;;61.00;49.00;;;;;10.71;46.99;102101.38;5071846;27;45512;-89
2022/03/26 07:08:29;;;;;;;;;63.33;52.00;;;;;10.85;46.53;102111.44;5071234;28;45316;-89
2022/03/26 07:10:54;;;;;;;;;65.33;51.00;;;;;10.86;46.83;102107.06;5069724;28;47097;-89
2022/03/26 07:13:20;;;;;;;;;64.33;49.67;;;;;10.78;46.81;102088.38;5062187;28;45279;-86
2022/03/26 07:15:45;;;;;;;;;62.00;51.00;;;;;11.05;46.49;102119.00;5059305;28;45180;-87
2022/03/26 07:18:11;;;;;;;;;68.00;51.67;;;;;10.99;45.96;102105.69;5059562;28;45567;-87
2022/03/26 07:20:37;;;;;;;;;64.00;49.67;;;;;11.20;45.82;102123.81;5058286;28;45531;-82
2022/03/26 07:23:04;;;;;;;;;67.33;52.33;;;;;11.32;45.59;102130.31;5059311;28;45292;-87
2022/03/26 07:25:31;;;;;;;;;68.67;51.00;;;;;11.39;46.02;102134.91;5064628;28;45454;-77
2022/03/26 07:27:57;;;;;;;;;65.75;53.00;;;;;11.43;45.51;102134.09;5068045;28;45463;-77
2022/03/26 07:30:23;;;;;;;;;65.00;50.25;;;;;11.52;45.05;102140.47;5066728;28;46174;-80
2022/03/26 07:32:50;;;;;;;;;60.75;49.50;;;;;11.60;45.34;102136.31;5061064;28;45443;-82
2022/03/26 07:35:16;;;;;;;;;68.50;54.50;;;;;11.63;44.70;102139.94;5063518;28;45267;-81
2022/03/26 07:37:43;;;;;;;;;67.00;54.25;;;;;11.56;45.13;102123.91;5061457;28;45514;-79
2022/03/26 07:40:10;;;;;;;;;64.25;50.75;;;;;11.71;45.14;102122.50;5064793;28;46072;-77
2022/03/26 07:42:35;;;;;;;;;59.75;46.50;;;;;11.87;45.50;102131.75;5068564;28;45363;-85
2022/03/26 07:45:03;;;;;;;;;69.75;54.00;;;;;11.83;44.45;102106.13;5060491;28;45397;-80
2022/03/26 07:47:30;;;;;;;;;63.25;51.00;;;;;12.07;44.50;102144.53;5061427;28;45323;-78
2022/03/26 07:49:56;;;;;;;;;67.75;51.75;;;;;12.04;44.04;102131.25;5057454;28;45424;-82
2022/03/26 07:52:22;;;;;;;;;60.75;48.75;;;;;12.19;44.28;102135.16;5061525;28;45370;-84
2022/03/26 07:54:47;;;;;;;;;63.00;49.25;;;;;12.30;43.71;102145.97;5061944;28;45443;-80
2022/03/26 07:57:13;;;;;;;;;64.25;50.50;;;;;12.41;43.91;102140.94;5060833;28;45367;-85
2022/03/26 07:59:38;;;;;;;;;67.75;50.75;;;;;12.44;42.85;102120.72;5058876;28;45991;-85
2022/03/26 08:02:04;;;;;;;;;64.00;46.75;;;;;12.64;42.68;102137.03;5060527;28;45441;-78
2022/03/26 08:04:30;;;;;;;;;66.50;50.25;;;;;12.75;41.97;102137.25;5059926;28;45299;-79
2022/03/26 08:06:56;;;;;;;;;60.25;47.75;;;;;12.89;41.57;102137.53;5058735;28;45502;-81
2022/03/26 08:09:22;;;;;;;;;59.75;48.25;;;;;13.01;41.18;102137.78;5058724;28;47260;-77
2022/03/26 08:11:48;;;;;;;;;59.50;46.25;;;;;13.10;41.09;102135.31;5058376;28;45506;-77
2022/03/26 08:14:13;;;;;;;;;58.75;45.00;;;;;13.23;40.55;102144.44;5059082;28;45414;-76
2022/03/26 08:16:39;;;;;;;;;54.75;44.75;;;;;13.33;39.99;102135.78;5067573;28;45279;-76
2022/03/26 08:19:06;;;;;;;;;60.25;45.25;;;;;13.40;39.87;102128.00;5063377;28;45900;-82
2022/03/26 08:21:35;;;;;;;;;56.50;43.25;;;;;13.50;39.89;102130.81;5058333;28;45337;-81
2022/03/26 08:24:00;;;;;;;;;54.50;43.00;;;;;13.66;38.77;102148.72;5056500;28;45485;-78
2022/03/26 08:26:29;;;;;;;;;56.50;46.50;;;;;13.79;38.17;102139.25;5058368;28;45351;-81
2022/03/26 08:28:57;;;;;;;;;50.75;42.00;;;;;13.92;38.23;102149.16;5058708;28;45455;-80
2022/03/26 08:31:24;;;;;;;;;51.50;41.25;;;;;14.04;38.32;102149.34;5057797;28;45610;-79
2022/03/26 08:33:53;;;;;;;;;58.00;42.50;;;;;14.06;37.61;102134.41;5058131;28;45650;-77
2022/03/26 08:36:19;;;;;;;;;51.25;39.50;;;;;14.26;37.40;102147.94;5057150;28;46986;-77
2022/03/26 08:38:46;;;;;;;;;58.00;43.00;;;;;14.39;36.94;102154.31;5058038;28;45651;-82
2022/03/26 08:41:14;;;;;;;;;53.75;41.50;;;;;14.55;36.78;102151.03;5055531;28;45451;-80
2022/03/26 08:43:39;;;;;;;;;53.75;43.25;;;;;14.70;36.48;102153.00;5057534;28;45291;-77
2022/03/26 08:46:05;;;;;;;;;55.25;43.00;;;;;14.86;36.20;102152.31;5057079;28;45262;-83
2022/03/26 08:48:31;;;;;;;;;60.25;43.25;;;;;15.09;35.89;102147.31;5057172;28;46150;-82
2022/03/26 08:50:57;;;;;;;;;48.75;39.50;;;;;15.47;35.43;102145.06;5056949;28;45512;-77
2022/03/26 08:53:23;;;;;;;;;47.50;36.75;;;;;16.02;34.47;102142.91;5056584;28;45483;-77
2022/03/26 08:55:49;;;;;;;;;52.25;41.50;;;;;16.78;33.41;102150.47;5056676;28;45374;-77
2022/03/26 08:58:17;;;;;;;;;56.50;41.75;;;;;17.62;31.78;102146.25;5057879;28;46199;-79
2022/03/26 09:00:47;;;;;;;;;50.50;40.00;;;;;18.34;30.29;102106.22;5057476;28;45227;-77
2022/03/26 09:03:17;;;;;;;;;49.25;41.50;;;;;19.24;29.07;102108.47;5058645;28;45476;-83
2022/03/26 09:05:44;;;;;;;;;51.50;41.75;;;;;20.46;28.04;102136.88;5060297;28;45335;-81
2022/03/26 09:08:09;;;;;;;;;52.75;39.75;;;;;21.31;27.05;102109.88;5057601;28;45385;-79
2022/03/26 09:10:35;;;;;;;;;51.25;41.50;;;;;22.08;25.59;102085.38;5060281;28;45220;-79
2022/03/26 09:13:00;;;;;;;;;48.50;39.00;;;;;22.66;25.22;102082.41;5060576;28;45628;-78
2022/03/26 09:15:26;;;;;;;;;49.00;38.00;;;;;23.47;24.01;102122.72;5061776;28;45373;-78
2022/03/26 09:17:51;;;;;;;;;51.00;37.50;;;;;24.22;23.27;102129.78;5059616;28;45428;-78
2022/03/26 09:20:17;;;;;;;;;48.50;40.00;;;;;24.79;22.88;102106.63;5059958;28;45394;-87
2022/03/26 09:22:43;;;;;;;;;50.50;41.00;;;;;25.10;23.35;102098.53;5056895;28;45543;-83
2022/03/26 09:25:08;;;;;;;;;49.25;38.25;;;;;25.70;21.81;102138.88;5057994;28;45323;-82
2022/03/26 09:27:34;;;;;;;;;42.50;35.00;;;;;26.30;21.68;102126.84;5061159;28;45469;-83
2022/03/26 09:29:59;;;;;;;;;43.67;37.00;;;;;26.86;21.06;102120.28;5064066;28;45414;-82
2022/03/26 09:32:25;;;;;;;;;48.67;38.33;;;;;27.55;20.01;102124.75;5056210;28;45555;-83
2022/03/26 09:34:51;;;;;;;;;47.00;39.00;;;;;27.99;20.17;102134.66;5057979;28;45326;-83
2022/03/26 09:37:17;;;;;;;;;55.00;41.00;;;;;28.45;19.42;102124.53;5061107;28;47106;-81
2022/03/26 09:39:43;;;;;;;;;47.67;40.00;;;;;28.71;18.54;102060.94;5058673;28;45512;-85
2022/03/26 09:42:09;;;;;;;;;51.67;39.67;;;;;29.45;17.67;102125.16;5060687;28;45358;-81
2022/03/26 09:44:36;;;;;;;;;50.67;40.33;;;;;30.05;17.78;102135.72;5058903;28;45441;-81
2022/03/26 09:47:05;;;;;;;;;45.67;38.00;;;;;31.30;16.86;102100.84;5049092;28;47241;-85
2022/03/26 09:49:31;;;;;;;;;48.67;37.67;;;;;33.16;15.42;102133.84;5060804;28;45256;-86
2022/03/26 09:51:57;;;;;;;;;49.00;40.00;;;;;34.85;13.55;102098.44;5063413;28;45224;-86
2022/03/26 09:54:23;;;;;;;;;48.67;40.67;;;;;36.57;12.89;102095.22;5062560;28;45177;-82
2022/03/26 09:56:49;;;;;;;;;49.00;40.33;;;;;37.61;11.90;102120.47;5060079;28;46100;-85
2022/03/26 09:59:22;;;;;;;;;37.33;32.67;;;;;38.40;11.53;102131.09;5058155;28;45267;-83
2022/03/26 10:01:48;;;;;;;;;50.00;40.33;;;;;38.75;10.89;102112.31;5058926;28;45376;-83
2022/03/26 10:04:16;;;;;;;;;51.00;39.67;;;;;39.41;10.53;102130.19;5072912;28;45364;-80
2022/03/26 10:06:53;;;;;;;;;36.50;32.50;;;;;38.47;11.16;102132.28;5067169;28;45592;-85
2022/03/26 10:09:25;;;;;;;;;45.00;38.00;;;;;36.22;11.52;102085.22;5061112;28;45455;-88
2022/03/26 10:12:30;;;;;;;;;47.00;40.00;;;;;37.52;11.23;102126.75;5068035;28;45807;-84
2022/03/26 10:15:08;;;;;;;;;45.50;36.75;;;;;39.31;10.26;102084.19;5019882;28;45505;-94
2022/03/26 10:17:37;;;;;;;;;47.50;39.25;;;;;40.40;9.95;102127.13;5030791;28;46015;-84
2022/03/26 10:20:08;;;;;;;;;45.20;38.20;;;;;41.03;9.27;102082.22;5024442;28;45467;-89
2022/03/26 10:22:43;;;;;;;;;46.50;36.75;;;;;41.85;9.21;102101.44;5036512;28;45493;-82
2022/03/26 10:25:21;;;;;;;;;42.00;36.50;;;;;42.15;8.33;102070.69;5007851;28;45423;-80
2022/03/26 10:27:49;;;;;;;;;44.60;38.40;;;;;42.53;8.86;102100.72;5015089;28;46339;-85
2022/03/26 10:33:22;;;;;;;;;40.20;34.60;;;;;41.89;8.43;102109.44;5021914;28;45415;-92
2022/03/26 10:35:59;;;;;;;;;45.00;37.80;;;;;41.38;9.08;102098.03;5033850;28;45590;-94
2022/03/26 10:38:33;;;;;;;;;47.60;37.40;;;;;41.68;8.74;102098.66;5029500;28;46356;-86
2022/03/26 10:41:11;;;;;;;;;48.40;38.80;;;;;41.77;8.66;102090.28;5044429;28;44776;-89
2022/03/26 10:43:38;;;;;;;;;43.60;35.40;;;;;41.17;8.65;102105.72;5025107;28;45450;-86
2022/03/26 10:46:03;;;;;;;;;47.60;38.40;;;;;39.24;10.17;102088.53;5020431;28;45499;-85
2022/03/26 10:48:32;;;;;;;;;47.75;39.50;;;;;36.83;11.13;102104.13;5029006;28;46066;-88
2022/03/26 10:51:00;;;;;;;;;44.60;38.60;;;;;34.74;12.08;102079.22;5032192;28;45567;-86
2022/03/26 10:53:54;;;;;;;;;47.60;37.00;;;;;32.54;12.91;102094.19;5058166;28;45295;-84
2022/03/26 10:56:20;;;;;;;;;46.25;39.00;;;;;30.99;14.44;102088.94;5049903;28;45548;-84
2022/03/26 10:58:45;;;;;;;;;48.00;40.00;;;;;29.74;15.29;102091.13;5055603;28;45605;-80
2022/03/26 11:01:12;;;;;;;;;50.25;41.50;;;;;28.69;15.90;102082.72;5054340;28;46686;-79
2022/03/26 11:03:39;;;;;;;;;50.50;41.25;;;;;27.89;16.82;102088.13;5053321;28;45366;-83
2022/03/26 11:06:10;;;;;;;;;52.00;41.67;;;;;27.19;17.59;102089.25;5057633;28;45453;-83
2022/03/26 11:08:37;;;;;;;;;54.00;42.00;;;;;26.64;17.56;102077.88;5059086;28;46205;-82
2022/03/26 11:11:07;;;;;;;;;51.00;41.33;;;;;26.28;18.35;102080.09;5051049;28;45366;-84